Time;durP1;ratioP1;P1;durP2;ratioP2;P2;SDS_P1;SDS_P2;PMS_P1;PMS_P2;Temp;Humidity;BMP_temperature;BMP_pressure;BME280_temperature;BME280_humidity;BME280_pressure;Samples;Min_cycle;Max_cycle;Signal;HPM_P1;HPM_P2
2021/11/24 00:00:56;;;;;;;12.77;9.63;;;;;;;8.10;65.28;102376.81;2072567;28;20656;-75
2021/11/24 00:01:56;;;;;;;11.40;9.33;;;;;;;8.29;64.84;102407.09;2072608;28;20260;-75
2021/11/24 00:02:57;;;;;;;16.07;9.80;;;;;;;7.73;64.97;102319.88;2072854;28;20173;-75
2021/11/24 00:03:58;;;;;;;11.20;9.30;;;;;;;8.33;64.76;102407.94;2072581;28;20179;-75
2021/11/24 00:04:58;;;;;;;10.93;9.33;;;;;;;8.33;64.92;102407.16;2073604;28;20542;-75
2021/11/24 00:05:59;;;;;;;13.97;10.13;;;;;;;8.28;65.40;102405.50;2073337;28;20172;-74
2021/11/24 00:07:00;;;;;;;12.83;9.67;;;;;;;8.35;65.30;102413.88;2072822;28;20574;-75
2021/11/24 00:08:00;;;;;;;11.83;9.77;;;;;;;8.19;65.10;102396.66;2073149;28;20181;-75
2021/11/24 00:09:01;;;;;;;11.63;9.40;;;;;;;7.99;65.00;102369.56;2072830;28;20175;-75
2021/11/24 00:10:02;;;;;;;11.27;9.13;;;;;;;8.32;64.92;102419.38;2072226;28;20204;-75
2021/11/24 00:11:03;;;;;;;13.90;9.33;;;;;;;8.06;64.81;102386.22;2062857;28;20189;-74
2021/11/24 00:12:04;;;;;;;15.20;10.27;;;;;;;8.17;64.97;102420.31;2056337;28;20587;-75
2021/11/24 00:13:05;;;;;;;10.33;9.00;;;;;;;8.13;65.41;102420.25;2056314;28;20176;-75
2021/11/24 00:14:06;;;;;;;12.43;9.60;;;;;;;7.81;65.38;102365.75;2064458;28;20596;-75
2021/11/24 00:15:07;;;;;;;12.07;9.43;;;;;;;8.17;64.97;102414.78;2065108;28;20535;-75
2021/11/24 00:16:08;;;;;;;12.98;9.63;;;;;;;8.13;64.92;102423.03;2069900;28;20186;-75
2021/11/24 00:17:09;;;;;;;11.20;8.73;;;;;;;7.87;64.98;102398.19;2072962;28;20181;-74
2021/11/24 00:18:09;;;;;;;14.13;9.80;;;;;;;7.47;65.58;102350.22;2073183;28;20632;-74
2021/11/24 00:19:10;;;;;;;15.13;10.00;;;;;;;7.93;65.48;102421.53;2072609;28;20166;-75
2021/11/24 00:20:10;;;;;;;13.13;10.73;;;;;;;7.84;65.89;102420.22;2071911;28;20252;-75
2021/11/24 00:21:11;;;;;;;12.30;10.70;;;;;;;7.40;65.68;102363.91;2071848;28;20244;-75
2021/11/24 00:22:11;;;;;;;14.67;11.00;;;;;;;7.27;66.18;102356.97;2073325;28;20653;-75
2021/11/24 00:23:12;;;;;;;13.33;11.00;;;;;;;7.63;66.51;102426.16;2072961;28;20170;-75
2021/11/24 00:24:13;;;;;;;14.70;11.07;;;;;;;7.60;66.81;102426.13;2073277;28;20204;-75
2021/11/24 00:25:13;;;;;;;13.13;11.00;;;;;;;7.56;67.04;102423.31;2072252;28;20170;-75
2021/11/24 00:26:14;;;;;;;12.40;10.67;;;;;;;7.29;67.18;102391.28;2073415;28;20183;-75
2021/11/24 00:27:15;;;;;;;12.90;10.40;;;;;;;7.38;67.37;102421.41;2072841;28;20178;-74
2021/11/24 00:28:15;;;;;;;14.17;10.43;;;;;;;7.26;67.35;102419.63;2072935;28;20204;-75
2021/11/24 00:29:16;;;;;;;14.87;11.00;;;;;;;7.25;67.56;102417.22;2071950;28;20228;-74
2021/11/24 00:30:17;;;;;;;16.67;11.33;;;;;;;7.20;67.58;102418.31;2072071;28;20180;-75
2021/11/24 00:31:17;;;;;;;13.77;11.13;;;;;;;7.22;68.45;102429.78;2070664;28;20229;-74
2021/11/24 00:32:18;;;;;;;12.93;10.60;;;;;;;7.01;68.26;102412.84;2073341;28;20182;-74
2021/11/24 00:33:19;;;;;;;14.10;10.97;;;;;;;7.13;68.13;102426.44;2072836;28;20204;-74
2021/11/24 00:34:19;;;;;;;12.87;10.70;;;;;;;6.69;68.77;102359.06;2072735;28;20166;-74
2021/11/24 00:35:20;;;;;;;14.23;11.17;;;;;;;7.25;68.72;102422.72;2072694;28;20181;-75
2021/11/24 00:36:20;;;;;;;17.13;11.30;;;;;;;7.03;68.00;102374.66;2073258;28;20182;-74
2021/11/24 00:37:21;;;;;;;14.83;11.13;;;;;;;7.29;68.17;102424.38;2072822;28;20293;-74
2021/11/24 00:38:22;;;;;;;15.80;11.03;;;;;;;7.35;68.18;102422.13;2072194;28;20180;-75
2021/11/24 00:39:22;;;;;;;14.70;11.33;;;;;;;7.26;68.62;102416.84;2072769;28;20625;-74
2021/11/24 00:40:23;;;;;;;12.53;10.77;;;;;;;7.44;67.95;102426.22;2072121;28;20666;-75
2021/11/24 00:41:24;;;;;;;12.53;10.20;;;;;;;7.49;67.74;102425.16;2071939;28;20260;-75
2021/11/24 00:42:24;;;;;;;14.30;11.13;;;;;;;7.51;67.65;102434.66;2073060;28;20181;-75
2021/11/24 00:43:26;;;;;;;12.50;10.33;;;;;;;7.53;67.81;102426.78;2072418;28;20184;-74
2021/11/24 00:44:27;;;;;;;12.98;10.52;;;;;;;7.57;67.59;102427.66;2072952;28;20165;-74
2021/11/24 00:45:28;;;;;;;14.67;11.37;;;;;;;7.60;66.99;102439.91;2072753;28;20265;-74
2021/11/24 00:46:28;;;;;;;14.63;11.73;;;;;;;7.61;67.04;102434.03;2072952;28;20628;-74
2021/11/24 00:47:29;;;;;;;14.13;11.50;;;;;;;7.04;66.68;102345.16;2072494;28;20174;-74
2021/11/24 00:48:30;;;;;;;15.20;11.43;;;;;;;7.68;66.79;102431.38;2072567;28;20178;-74
2021/11/24 00:49:30;;;;;;;13.97;11.40;;;;;;;7.68;66.84;102434.13;2072601;28;20162;-74
2021/11/24 00:50:32;;;;;;;14.47;11.13;;;;;;;7.12;66.53;102342.16;2072034;28;20204;-74
2021/11/24 00:51:32;;;;;;;14.57;11.65;;;;;;;7.72;65.96;102439.72;2072132;28;20269;-75
2021/11/24 00:52:33;;;;;;;14.80;12.40;;;;;;;7.55;66.38;102409.88;2072303;28;20393;-74
2021/11/24 00:53:34;;;;;;;13.20;11.40;;;;;;;7.78;66.06;102446.50;2073053;28;20620;-74
2021/11/24 00:54:35;;;;;;;14.23;11.83;;;;;;;7.79;65.61;102437.88;2073008;28;20667;-75
2021/11/24 00:55:35;;;;;;;14.02;10.98;;;;;;;7.80;65.82;102442.22;2072708;28;20176;-74
2021/11/24 00:56:36;;;;;;;14.93;12.33;;;;;;;7.82;65.58;102441.84;2072429;28;20186;-74
2021/11/24 00:57:37;;;;;;;14.32;12.13;;;;;;;7.31;65.71;102366.09;2072843;28;20524;-74
2021/11/24 00:58:37;;;;;;;15.57;12.80;;;;;;;7.76;65.38;102432.28;2072441;28;20185;-74
2021/11/24 00:59:38;;;;;;;14.13;12.43;;;;;;;7.84;65.39;102445.06;2071405;28;20177;-74
2021/11/24 01:00:39;;;;;;;17.73;12.97;;;;;;;7.78;65.73;102443.75;2070928;28;20193;-74
2021/11/24 01:01:39;;;;;;;15.00;12.67;;;;;;;7.74;65.79;102429.13;2071914;28;20445;-74
2021/11/24 01:02:40;;;;;;;14.80;12.60;;;;;;;7.74;65.36;102440.16;2072840;28;20640;-74
2021/11/24 01:03:40;;;;;;;14.90;12.47;;;;;;;7.77;65.17;102436.63;2072879;28;20173;-74
2021/11/24 01:04:41;;;;;;;18.03;12.43;;;;;;;7.75;65.71;102437.00;2072899;28;20243;-74
2021/11/24 01:05:45;;;;;;;15.20;12.02;;;;;;;7.36;65.38;102383.16;2072184;28;20177;-74
2021/11/24 01:06:45;;;;;;;15.73;13.05;;;;;;;7.36;65.61;102391.44;2072828;28;20191;-74
2021/11/24 01:07:46;;;;;;;17.40;11.97;;;;;;;7.63;66.25;102441.94;2072823;28;20624;-74
2021/11/24 01:08:47;;;;;;;14.67;12.27;;;;;;;7.20;65.69;102374.22;2072474;28;20564;-74
2021/11/24 01:09:52;;;;;;;16.47;12.50;;;;;;;7.64;66.13;102443.53;2071546;28;20585;-74
2021/11/24 01:10:52;;;;;;;16.17;12.93;;;;;;;7.29;66.23;102388.53;2071808;28;20271;-74
2021/11/24 01:11:53;;;;;;;13.63;11.90;;;;;;;7.46;66.25;102415.63;2072191;28;20195;-74
2021/11/24 01:12:54;;;;;;;16.40;12.43;;;;;;;7.40;66.08;102395.06;2072654;28;20261;-74
2021/11/24 01:13:55;;;;;;;14.90;12.90;;;;;;;7.65;66.14;102451.44;2072797;28;20173;-74
2021/11/24 01:14:55;;;;;;;13.53;11.90;;;;;;;7.75;66.11;102445.28;2072409;28;20179;-74
2021/11/24 01:15:56;;;;;;;14.90;11.80;;;;;;;7.78;66.15;102446.50;2072604;28;20201;-74
2021/11/24 01:16:56;;;;;;;15.27;12.50;;;;;;;7.81;66.18;102451.31;2072816;28;20178;-74
2021/11/24 01:17:57;;;;;;;15.70;12.33;;;;;;;7.42;66.01;102395.47;2072745;28;20267;-74
2021/11/24 01:18:58;;;;;;;15.47;12.67;;;;;;;7.68;65.69;102425.84;2071991;28;20607;-74
2021/11/24 01:19:58;;;;;;;16.13;13.30;;;;;;;7.76;65.65;102432.28;2071991;28;20174;-74
2021/11/24 01:20:59;;;;;;;20.37;13.70;;;;;;;7.83;65.73;102452.53;2071060;28;20627;-74
2021/11/24 01:21:59;;;;;;;19.43;13.17;;;;;;;7.77;65.71;102454.00;2071592;28;20643;-74
2021/11/24 01:23:00;;;;;;;18.10;13.00;;;;;;;7.83;65.92;102443.44;2072821;28;20181;-74
2021/11/24 01:24:01;;;;;;;18.45;13.02;;;;;;;7.77;65.91;102448.50;2072083;28;20211;-74
2021/11/24 01:25:02;;;;;;;19.23;15.30;;;;;;;7.62;65.97;102449.41;2072714;28;20233;-75
2021/11/24 01:26:03;;;;;;;19.30;14.73;;;;;;;7.47;66.16;102447.56;2072417;28;20655;-74
2021/11/24 01:27:04;;;;;;;19.92;14.77;;;;;;;7.35;66.44;102446.94;2072639;28;20178;-74
2021/11/24 01:28:04;;;;;;;18.60;14.03;;;;;;;7.32;66.92;102442.16;2072005;28;20181;-75
2021/11/24 01:29:05;;;;;;;18.30;14.50;;;;;;;6.93;67.09;102377.25;2072107;28;20177;-74
2021/11/24 01:30:06;;;;;;;16.30;13.23;;;;;;;7.42;67.61;102447.06;2062447;28;20175;-74
2021/11/24 01:31:07;;;;;;;19.30;13.20;;;;;;;7.46;66.81;102442.41;2062821;28;20174;-74
2021/11/24 01:32:08;;;;;;;16.13;13.30;;;;;;;7.50;66.83;102444.09;2071883;28;20173;-74
2021/11/24 01:33:08;;;;;;;18.00;13.20;;;;;;;7.06;66.70;102370.38;2063255;28;20202;-74
2021/11/24 01:34:09;;;;;;;17.50;13.20;;;;;;;7.54;66.50;102444.16;2063971;28;20201;-74
2021/11/24 01:35:10;;;;;;;16.27;13.93;;;;;;;7.55;66.47;102445.72;2072553;28;20620;-74
2021/11/24 01:36:10;;;;;;;17.13;13.18;;;;;;;7.54;66.29;102441.38;2072630;28;20574;-74
2021/11/24 01:37:11;;;;;;;16.27;12.93;;;;;;;7.52;66.17;102454.72;2071228;28;20201;-75
2021/11/24 01:38:11;;;;;;;15.97;13.50;;;;;;;7.52;65.97;102446.47;2072068;28;20170;-75
2021/11/24 01:39:12;;;;;;;15.73;13.23;;;;;;;7.10;65.97;102385.03;2072174;28;20196;-74
2021/11/24 01:40:13;;;;;;;15.77;12.70;;;;;;;7.55;66.42;102454.81;2071505;28;20163;-75
2021/11/24 01:41:15;;;;;;;16.13;12.93;;;;;;;7.55;66.55;102456.78;2071475;28;20178;-74
2021/11/24 01:42:17;;;;;;;18.08;14.20;;;;;;;7.56;66.24;102452.84;2071959;28;20714;-74
2021/11/24 01:43:18;;;;;;;17.67;14.30;;;;;;;7.56;66.74;102450.09;2072374;28;20177;-74
2021/11/24 01:44:23;;;;;;;19.03;15.00;;;;;;;7.53;66.63;102448.84;2072704;28;20162;-74
2021/11/24 01:45:24;;;;;;;19.35;14.52;;;;;;;7.53;66.59;102443.34;2072543;28;20701;-74
2021/11/24 01:46:27;;;;;;;15.97;12.67;;;;;;;7.55;66.26;102445.72;2071823;28;20557;-75
2021/11/24 01:47:27;;;;;;;15.65;12.52;;;;;;;7.18;66.38;102381.25;2072500;28;20676;-74
2021/11/24 01:48:28;;;;;;;14.67;12.00;;;;;;;7.52;66.34;102441.75;2072136;28;20174;-74
2021/11/24 01:49:30;;;;;;;17.30;11.57;;;;;;;6.80;66.01;102328.94;2072403;28;20582;-74
2021/11/24 01:50:31;;;;;;;14.55;12.13;;;;;;;7.24;66.58;102405.41;2070392;28;21186;-74
2021/11/24 01:51:31;;;;;;;17.23;12.47;;;;;;;7.41;66.01;102435.25;2071591;28;20634;-74
2021/11/24 01:52:32;;;;;;;15.70;12.13;;;;;;;7.38;66.30;102438.72;2072550;28;20232;-74
2021/11/24 01:53:33;;;;;;;14.33;10.93;;;;;;;7.41;66.71;102438.00;2072289;28;20572;-74
2021/11/24 01:54:33;;;;;;;17.03;13.43;;;;;;;7.41;66.23;102445.47;2071961;28;20209;-75
2021/11/24 01:55:34;;;;;;;15.00;12.57;;;;;;;7.37;66.34;102437.16;2071210;28;20368;-74
2021/11/24 01:56:34;;;;;;;15.60;13.17;;;;;;;7.12;66.34;102402.03;2072267;28;20268;-75
2021/11/24 01:57:39;;;;;;;17.27;14.27;;;;;;;7.37;66.13;102444.59;2072364;28;20189;-75
2021/11/24 01:58:40;;;;;;;15.90;13.10;;;;;;;7.34;66.25;102435.09;2072232;28;20610;-75
2021/11/24 01:59:41;;;;;;;16.30;13.60;;;;;;;7.34;66.20;102440.63;2070993;28;20209;-75
2021/11/24 02:00:41;;;;;;;17.33;14.27;;;;;;;7.24;65.99;102421.16;2071280;28;20174;-75
2021/11/24 02:01:44;;;;;;;17.90;14.50;;;;;;;7.29;66.00;102440.94;2071793;28;20170;-75
2021/11/24 02:02:45;;;;;;;17.33;14.05;;;;;;;7.26;66.43;102436.16;2072318;28;20178;-75
2021/11/24 02:03:45;;;;;;;19.17;14.60;;;;;;;7.19;66.11;102441.56;2072189;28;20655;-75
2021/11/24 02:04:46;;;;;;;19.10;14.67;;;;;;;7.06;65.90;102437.34;2072055;28;20173;-75
2021/11/24 02:05:46;;;;;;;19.50;15.13;;;;;;;6.43;66.56;102360.91;2072287;28;20668;-76
2021/11/24 02:06:49;;;;;;;21.03;15.67;;;;;;;6.90;66.77;102435.84;2072293;28;20590;-76
2021/11/24 02:07:51;;;;;;;20.70;15.02;;;;;;;6.80;67.41;102437.22;2072272;28;20169;-76
2021/11/24 02:08:51;;;;;;;19.17;14.82;;;;;;;6.85;66.79;102436.13;2071549;28;20309;-76
2021/11/24 02:09:52;;;;;;;19.30;15.30;;;;;;;6.84;67.38;102440.06;2071821;28;20177;-76
2021/11/24 02:10:52;;;;;;;17.23;14.07;;;;;;;6.86;67.54;102441.28;2071220;28;20244;-76
2021/11/24 02:11:55;;;;;;;18.90;15.70;;;;;;;6.95;66.85;102439.13;2071754;28;20748;-76
2021/11/24 02:12:56;;;;;;;18.63;15.43;;;;;;;6.89;67.23;102431.50;2071883;28;20305;-76
2021/11/24 02:13:56;;;;;;;17.50;14.53;;;;;;;6.95;67.00;102443.81;2072125;28;20240;-76
2021/11/24 02:14:57;;;;;;;18.63;15.17;;;;;;;6.92;66.90;102439.81;2072103;28;20186;-75
2021/11/24 02:15:58;;;;;;;19.70;15.40;;;;;;;6.68;67.36;102407.09;2072182;28;20178;-75
2021/11/24 02:16:59;;;;;;;20.40;16.00;;;;;;;6.60;66.73;102402.56;2072154;28;20219;-75
2021/11/24 02:18:04;;;;;;;18.67;14.47;;;;;;;6.89;66.68;102437.81;2070821;28;20189;-76
2021/11/24 02:19:05;;;;;;;18.10;15.05;;;;;;;6.91;67.18;102440.19;2071292;28;20195;-75
2021/11/24 02:20:10;;;;;;;18.30;15.17;;;;;;;6.84;67.37;102442.81;2070841;28;20265;-75
2021/11/24 02:21:11;;;;;;;17.33;14.90;;;;;;;6.42;67.03;102368.34;2071049;28;20191;-76
2021/11/24 02:22:12;;;;;;;23.07;16.37;;;;;;;6.14;67.11;102331.16;2071739;28;20181;-76
2021/11/24 02:23:14;;;;;;;21.27;16.30;;;;;;;6.73;67.13;102434.34;2072204;28;20312;-75
2021/11/24 02:24:16;;;;;;;23.17;16.73;;;;;;;6.73;67.68;102439.84;2072340;28;20176;-75
2021/11/24 02:25:17;;;;;;;23.77;16.48;;;;;;;6.68;67.91;102439.34;2072181;28;20173;-75
2021/11/24 02:26:20;;;;;;;26.60;16.43;;;;;;;6.68;67.92;102436.59;2071523;28;20261;-76
2021/11/24 02:27:21;;;;;;;22.08;15.30;;;;;;;6.75;68.64;102433.97;2070981;28;20249;-76
2021/11/24 02:28:22;;;;;;;24.33;16.80;;;;;;;6.84;68.13;102438.09;2071828;28;20173;-76
2021/11/24 02:29:23;;;;;;;24.30;15.43;;;;;;;6.88;68.66;102441.72;2072033;28;20253;-75
2021/11/24 02:30:23;;;;;;;23.83;15.47;;;;;;;6.62;68.09;102393.94;2071079;28;20172;-76
2021/11/24 02:31:26;;;;;;;24.80;15.23;;;;;;;6.64;68.38;102411.72;2070510;28;20657;-76
2021/11/24 02:32:27;;;;;;;22.85;16.25;;;;;;;6.99;68.13;102440.00;2072208;28;20150;-76
2021/11/24 02:33:28;;;;;;;22.90;15.60;;;;;;;7.00;67.48;102441.56;2072179;28;20313;-76
2021/11/24 02:34:30;;;;;;;20.95;15.70;;;;;;;6.97;66.64;102431.25;2072014;28;20166;-76
2021/11/24 02:35:31;;;;;;;22.35;16.00;;;;;;;7.08;66.28;102437.78;2071914;28;20683;-76
2021/11/24 02:36:32;;;;;;;20.60;16.15;;;;;;;6.95;66.01;102416.25;2071913;28;20228;-76
2021/11/24 02:37:33;;;;;;;24.25;17.35;;;;;;;7.09;67.20;102439.41;2072065;28;20174;-76
2021/11/24 02:38:33;;;;;;;26.87;16.90;;;;;;;7.10;66.95;102432.72;2071969;28;20166;-76
2021/11/24 02:39:34;;;;;;;21.60;16.80;;;;;;;7.13;66.68;102440.22;2071740;28;20592;-76
2021/11/24 02:40:35;;;;;;;17.80;14.67;;;;;;;6.77;66.08;102393.84;2070379;28;20184;-76
2021/11/24 02:41:37;;;;;;;19.90;15.43;;;;;;;6.31;65.72;102314.25;2071488;28;20166;-75
2021/11/24 02:42:39;;;;;;;20.48;15.32;;;;;;;6.07;66.12;102301.56;2072250;28;20548;-76
2021/11/24 02:43:40;;;;;;;20.45;16.40;;;;;;;6.88;66.32;102451.97;2072128;28;20236;-75
2021/11/24 02:44:41;;;;;;;20.43;15.07;;;;;;;6.85;65.84;102431.44;2071683;28;20268;-75
2021/11/24 02:45:42;;;;;;;21.23;16.30;;;;;;;6.79;66.35;102427.38;2072008;28;20242;-75
2021/11/24 02:46:43;;;;;;;19.40;15.50;;;;;;;6.94;65.91;102437.53;2072223;28;20173;-75
2021/11/24 02:47:43;;;;;;;19.13;15.27;;;;;;;6.72;66.01;102409.91;2072038;28;20257;-75
2021/11/24 02:48:44;;;;;;;19.40;15.83;;;;;;;6.75;66.34;102443.03;2071174;28;20191;-75
2021/11/24 02:49:47;;;;;;;21.87;15.77;;;;;;;6.43;66.61;102391.19;2070362;28;20216;-75
2021/11/24 02:50:47;;;;;;;20.23;15.15;;;;;;;6.73;67.12;102437.09;2071008;28;20181;-75
2021/11/24 02:51:48;;;;;;;18.33;14.87;;;;;;;6.63;67.69;102409.31;2071463;28;20399;-76
2021/11/24 02:52:49;;;;;;;18.77;15.53;;;;;;;6.84;67.52;102445.56;2071463;28;20200;-76
2021/11/24 02:53:50;;;;;;;19.40;15.57;;;;;;;6.90;67.93;102439.41;2070659;28;20173;-75
2021/11/24 02:55:00;;;;;;;19.40;14.47;;;;;;;6.60;67.56;102402.56;2071859;28;20165;-76
2021/11/24 02:56:01;;;;;;;20.30;15.07;;;;;;;6.89;66.59;102434.25;2072061;28;20572;-75
2021/11/24 02:57:04;;;;;;;16.60;13.80;;;;;;;6.87;65.70;102433.81;2071918;28;20196;-75
2021/11/24 02:58:04;;;;;;;18.80;14.40;;;;;;;6.93;65.78;102441.41;2071734;28;20238;-76
2021/11/24 02:59:08;;;;;;;20.47;14.63;;;;;;;6.96;65.57;102443.47;2070816;28;20330;-75
2021/11/24 03:00:17;;;;;;;18.85;15.07;;;;;;;6.93;66.01;102446.16;2070511;28;20195;-76
2021/11/24 03:01:17;;;;;;;18.40;14.70;;;;;;;6.85;66.28;102439.69;2070658;28;20177;-75
2021/11/24 03:02:18;;;;;;;19.33;14.70;;;;;;;6.81;67.10;102447.09;2072155;28;20239;-76
2021/11/24 03:03:19;;;;;;;19.80;15.77;;;;;;;6.22;67.30;102366.78;2062639;28;20248;-75
2021/11/24 03:04:19;;;;;;;20.00;14.97;;;;;;;6.86;67.76;102448.75;2063195;28;20179;-76
2021/11/24 03:05:24;;;;;;;19.30;15.63;;;;;;;6.93;67.05;102448.91;2071963;28;20210;-75
2021/11/24 03:06:24;;;;;;;20.13;15.07;;;;;;;6.96;67.06;102451.72;2072076;28;20180;-76
2021/11/24 03:07:25;;;;;;;22.93;15.70;;;;;;;6.93;66.16;102440.63;2071223;28;20475;-75
2021/11/24 03:08:26;;;;;;;20.07;15.47;;;;;;;6.57;66.24;102384.00;2071696;28;20211;-75
2021/11/24 03:09:26;;;;;;;18.70;15.03;;;;;;;6.50;65.65;102358.28;2072208;28;20252;-76
2021/11/24 03:10:27;;;;;;;20.00;14.87;;;;;;;6.70;65.59;102407.50;2070704;28;20631;-75
2021/11/24 03:11:28;;;;;;;18.43;14.67;;;;;;;6.78;65.90;102420.28;2070701;28;20520;-76
2021/11/24 03:12:28;;;;;;;18.67;15.27;;;;;;;6.68;66.05;102404.31;2071502;28;20651;-75
2021/11/24 03:13:29;;;;;;;20.00;15.10;;;;;;;7.06;65.74;102462.16;2071978;28;20284;-76
2021/11/24 03:14:29;;;;;;;28.07;15.23;;;;;;;6.94;66.81;102433.97;2071925;28;20555;-75
2021/11/24 03:15:30;;;;;;;24.13;15.50;;;;;;;7.17;67.35;102465.13;2072067;28;20170;-75
2021/11/24 03:16:31;;;;;;;21.40;15.90;;;;;;;7.13;66.42;102456.78;2071427;28;20717;-76
2021/11/24 03:17:32;;;;;;;22.87;14.70;;;;;;;6.82;65.89;102418.38;2071764;28;20559;-75
2021/11/24 03:18:32;;;;;;;20.17;14.63;;;;;;;6.72;66.16;102401.63;2071576;28;20169;-75
2021/11/24 03:19:33;;;;;;;19.60;14.77;;;;;;;7.15;65.80;102459.97;2071576;28;20550;-75
2021/11/24 03:20:33;;;;;;;20.73;14.97;;;;;;;6.76;66.01;102408.03;2070151;28;20174;-75
2021/11/24 03:21:34;;;;;;;26.60;15.37;;;;;;;7.17;65.75;102465.91;2070029;28;20180;-75
2021/11/24 03:22:35;;;;;;;17.83;14.27;;;;;;;7.25;66.01;102469.63;2071966;28;20557;-75
2021/11/24 03:23:36;;;;;;;19.97;14.73;;;;;;;7.28;65.78;102469.66;2063200;28;20194;-75
2021/11/24 03:24:36;;;;;;;15.87;13.50;;;;;;;7.00;66.09;102416.75;2063300;28;20175;-75
2021/11/24 03:25:37;;;;;;;18.97;13.33;;;;;;;7.20;66.78;102445.91;2071450;28;20673;-75
2021/11/24 03:26:38;;;;;;;17.27;12.80;;;;;;;7.39;66.64;102459.63;2072080;28;20196;-76
2021/11/24 03:27:41;;;;;;;19.63;13.27;;;;;;;7.31;67.06;102457.13;2071695;28;20639;-75
2021/11/24 03:28:41;;;;;;;20.10;12.85;;;;;;;7.49;66.56;102463.75;2071670;28;20825;-75
2021/11/24 03:29:42;;;;;;;20.50;13.93;;;;;;;7.53;66.08;102465.41;2070752;28;20646;-75
2021/11/24 03:30:42;;;;;;;18.17;13.60;;;;;;;7.55;66.07;102465.84;2070872;28;20184;-75
2021/11/24 03:31:43;;;;;;;15.67;12.97;;;;;;;7.56;65.93;102461.13;2070614;28;20205;-75
2021/11/24 03:32:44;;;;;;;14.17;12.40;;;;;;;7.59;65.95;102477.72;2071368;28;20249;-75
2021/11/24 03:33:44;;;;;;;17.02;13.02;;;;;;;7.41;65.80;102435.25;2071022;28;20178;-76
2021/11/24 03:34:45;;;;;;;17.27;13.67;;;;;;;7.66;64.95;102466.84;2070512;28;20189;-75
2021/11/24 03:35:46;;;;;;;16.50;13.50;;;;;;;7.17;65.01;102385.19;2070977;28;20182;-75
2021/11/24 03:36:46;;;;;;;16.53;13.60;;;;;;;7.72;65.26;102468.13;2071446;28;20177;-75
2021/11/24 03:37:50;;;;;;;17.60;13.73;;;;;;;7.71;64.52;102466.53;2070893;28;20667;-75
2021/11/24 03:38:50;;;;;;;16.52;13.75;;;;;;;7.75;64.88;102464.59;2070332;28;20181;-75
2021/11/24 03:39:52;;;;;;;18.73;13.70;;;;;;;7.76;63.89;102466.22;2070483;28;20272;-75
2021/11/24 03:40:52;;;;;;;16.52;13.27;;;;;;;7.77;63.68;102470.56;2070185;28;20362;-75
2021/11/24 03:41:53;;;;;;;18.60;14.43;;;;;;;7.76;63.87;102468.97;2070449;28;20731;-75
2021/11/24 03:42:54;;;;;;;16.17;12.83;;;;;;;7.75;63.32;102475.63;2071158;28;20296;-75
2021/11/24 03:43:55;;;;;;;15.93;13.30;;;;;;;7.79;62.94;102464.69;2061666;28;20639;-76
2021/11/24 03:44:55;;;;;;;17.58;14.15;;;;;;;7.81;63.06;102471.44;2062401;28;20651;-75
2021/11/24 03:45:56;;;;;;;16.33;12.83;;;;;;;7.79;63.87;102475.72;2071135;28;20196;-75
2021/11/24 03:46:56;;;;;;;17.00;13.10;;;;;;;7.74;63.83;102465.00;2071186;28;20158;-76
2021/11/24 03:47:58;;;;;;;16.03;12.20;;;;;;;7.78;63.37;102469.41;2070485;28;20178;-75
2021/11/24 03:48:58;;;;;;;18.52;12.68;;;;;;;7.73;62.96;102464.19;2070826;28;20589;-75
2021/11/24 03:49:59;;;;;;;17.67;13.40;;;;;;;7.84;63.36;102476.19;2070325;28;20257;-75
2021/11/24 03:50:59;;;;;;;19.17;12.67;;;;;;;7.86;63.11;102473.88;2069569;28;20209;-75
2021/11/24 03:52:00;;;;;;;18.00;13.30;;;;;;;7.60;63.30;102428.88;2069627;28;20213;-76
2021/11/24 03:53:01;;;;;;;17.42;13.05;;;;;;;7.91;63.60;102479.09;2070525;28;20189;-75
2021/11/24 03:54:02;;;;;;;20.23;14.03;;;;;;;7.57;63.88;102441.44;2070298;28;20660;-76
2021/11/24 03:55:05;;;;;;;20.53;13.07;;;;;;;7.91;64.56;102481.84;2070469;28;20219;-75
2021/11/24 03:56:06;;;;;;;23.50;13.77;;;;;;;7.90;64.41;102484.97;2070986;28;20182;-75
2021/11/24 03:57:07;;;;;;;17.90;13.45;;;;;;;7.87;64.82;102481.00;2069790;28;20923;-76
2021/11/24 03:58:08;;;;;;;17.63;13.60;;;;;;;7.44;64.45;102409.69;2077558;28;20267;-76
2021/11/24 03:59:08;;;;;;;16.47;13.17;;;;;;;7.91;64.84;102481.84;2073506;28;20751;-76
2021/11/24 04:00:12;;;;;;;17.33;13.20;;;;;;;7.96;64.34;102484.31;2070760;28;20181;-75
2021/11/24 04:01:13;;;;;;;17.35;13.07;;;;;;;7.93;63.23;102474.00;2070424;28;20178;-75
2021/11/24 04:02:13;;;;;;;17.30;13.97;;;;;;;7.59;64.12;102424.53;2071082;28;20174;-76
2021/11/24 04:03:14;;;;;;;20.70;13.30;;;;;;;7.60;63.87;102410.38;2070830;28;20316;-75
2021/11/24 04:04:15;;;;;;;17.47;13.07;;;;;;;7.91;64.08;102459.78;2071257;28;20266;-75
2021/11/24 04:05:16;;;;;;;14.97;12.53;;;;;;;8.09;64.12;102482.91;2071302;28;20170;-76
2021/11/24 04:06:17;;;;;;;15.38;12.85;;;;;;;8.10;63.60;102480.97;2071439;28;20686;-75
2021/11/24 04:07:18;;;;;;;18.10;13.03;;;;;;;8.12;63.52;102481.38;2072159;28;20684;-75
2021/11/24 04:08:19;;;;;;;14.90;12.83;;;;;;;7.79;63.35;102426.81;2072250;28;20216;-76
2021/11/24 04:09:20;;;;;;;14.65;12.38;;;;;;;7.95;63.71;102441.28;2072682;28;20618;-76
2021/11/24 04:10:21;;;;;;;14.77;12.43;;;;;;;7.85;63.90;102443.88;2071905;28;20166;-75
2021/11/24 04:11:21;;;;;;;13.43;11.67;;;;;;;8.16;63.89;102471.19;2071566;28;20394;-76
2021/11/24 04:12:22;;;;;;;14.43;11.97;;;;;;;7.83;63.33;102424.91;2073035;28;20232;-76
2021/11/24 04:13:23;;;;;;;14.03;11.87;;;;;;;8.15;63.63;102469.59;2072849;28;20170;-76
2021/11/24 04:14:23;;;;;;;14.50;11.43;;;;;;;8.16;63.42;102480.25;2073371;28;20245;-76
2021/11/24 04:15:24;;;;;;;15.50;12.10;;;;;;;8.17;62.88;102478.31;2072435;28;20700;-75
2021/11/24 04:16:25;;;;;;;14.90;12.47;;;;;;;8.07;63.06;102467.88;2073108;28;20163;-75
2021/11/24 04:17:25;;;;;;;15.30;12.30;;;;;;;8.18;63.49;102479.91;2072948;28;20186;-75
2021/11/24 04:18:26;;;;;;;16.13;12.40;;;;;;;8.17;63.15;102486.59;2072511;28;20637;-76
2021/11/24 04:19:26;;;;;;;15.17;11.57;;;;;;;8.12;63.09;102475.84;2072243;28;20178;-76
2021/11/24 04:20:27;;;;;;;16.17;11.90;;;;;;;8.17;63.04;102479.13;2072131;28;20261;-76
2021/11/24 04:21:30;;;;;;;14.73;12.27;;;;;;;8.05;62.78;102464.72;2071939;28;20177;-75
2021/11/24 04:22:30;;;;;;;13.90;11.65;;;;;;;8.19;62.90;102479.53;2073025;28;20263;-75
2021/11/24 04:23:31;;;;;;;14.50;12.27;;;;;;;8.21;63.02;102479.97;2072975;28;20189;-75
2021/11/24 04:24:32;;;;;;;13.43;11.87;;;;;;;7.73;63.10;102402.66;2072507;28;20184;-75
2021/11/24 04:25:32;;;;;;;14.83;11.87;;;;;;;8.09;62.88;102460.06;2072956;28;20308;-75
2021/11/24 04:26:33;;;;;;;13.20;11.40;;;;;;;8.26;62.93;102489.91;2072380;28;20174;-76
2021/11/24 04:27:33;;;;;;;13.20;11.33;;;;;;;8.26;62.50;102485.19;2072148;28;20229;-75
2021/11/24 04:28:34;;;;;;;14.03;12.40;;;;;;;8.28;62.31;102490.34;2072184;28;20174;-76
2021/11/24 04:29:35;;;;;;;14.23;11.87;;;;;;;8.29;62.46;102484.44;2071473;28;20758;-76
2021/11/24 04:30:35;;;;;;;14.40;11.57;;;;;;;8.32;62.55;102485.66;2063183;28;20213;-75
2021/11/24 04:31:36;;;;;;;15.20;11.97;;;;;;;8.18;62.44;102494.50;2063530;28;20197;-75
2021/11/24 04:32:36;;;;;;;14.70;12.20;;;;;;;8.32;61.88;102480.16;2072704;28;20556;-76
2021/11/24 04:33:37;;;;;;;14.83;11.70;;;;;;;8.34;62.66;102486.09;2072360;28;20174;-76
2021/11/24 04:34:38;;;;;;;14.93;11.90;;;;;;;8.33;62.68;102488.06;2072859;28;20185;-76
2021/11/24 04:35:39;;;;;;;15.37;12.00;;;;;;;8.33;63.13;102490.03;2072829;28;20666;-76
2021/11/24 04:36:40;;;;;;;22.45;12.90;;;;;;;8.07;63.02;102445.81;2073094;28;20164;-76
2021/11/24 04:37:41;;;;;;;15.53;11.97;;;;;;;8.32;63.07;102494.75;2072210;28;20663;-76
2021/11/24 04:38:41;;;;;;;15.37;12.50;;;;;;;8.32;62.81;102489.25;2072463;28;20697;-76
2021/11/24 04:39:42;;;;;;;18.70;12.53;;;;;;;8.30;63.02;102494.31;2071692;28;20232;-76
2021/11/24 04:40:43;;;;;;;14.23;11.57;;;;;;;8.30;62.88;102502.59;2071104;28;20509;-76